Time;durP1;ratioP1;P1;durP2;ratioP2;P2;SDS_P1;SDS_P2;PMS_P1;PMS_P2;Temp;Humidity;BMP_temperature;BMP_pressure;BME280_temperature;BME280_humidity;BME280_pressure;Samples;Min_cycle;Max_cycle;Signal;HPM_P1;HPM_P2
2022/03/10 09:39:58;;;;;;;;;;;;;;;23.83;25.39;101216.34;5076615;28;1466;-70
2022/03/10 09:53:35;;;;;;;;;;;;;;;22.10;26.99;101216.66;5026092;27;61730;-77
2022/03/10 09:57:47;;;;;;;;;;;;;;;;;;5100113;27;1234;-67
2022/03/10 10:00:30;;;;;;;;;;;;;;;;;;5055079;28;9970;-70
2022/03/10 10:02:56;;;;;;;;;;;;;;;;;;5028643;28;1385;-69
2022/03/10 10:05:24;;;;;;;;;;;;;;;;;;5025105;28;1394;-66
2022/03/10 10:08:09;;;;;;;;;;;;;;;;;;5027156;28;1355;-67
2022/03/10 10:10:35;;;;;;;;;;;;;;;;;;5026386;28;1357;-68
2022/03/10 10:13:05;;;;;;;;;;;;;;;;;;5027547;28;1251;-71
2022/03/10 10:15:34;;;;;;;;;;;;;;;;;;5022303;28;1389;-67
2022/03/10 10:18:00;;;;;;;;;;;;;;;;;;5025444;28;1237;-64
2022/03/10 10:20:29;;;;;;;;;;;;;;;;;;5028613;28;1906;-68
2022/03/10 10:22:54;;;;;;;;;;;;;;;;;;5030297;28;1272;-69
2022/03/10 10:25:20;;;;;;;;;;;;;;;;;;5027486;28;1263;-68
2022/03/10 10:27:48;;;;;;;;;;;;;;;;;;5029669;28;1259;-69
2022/03/10 10:30:14;;;;;;;;;;;;;;;;;;5027085;28;1264;-68
2022/03/10 10:32:49;;;;;;;;;;;;;;;;;;5025433;28;1310;-70
2022/03/10 10:35:20;;;;;;;;;;;;;;;;;;5040726;28;1315;-70
2022/03/10 10:37:48;;;;;;;;;;;;;;;;;;5027589;28;1172;-71
2022/03/10 10:40:18;;;;;;;;;;;;;;;;;;5028350;28;1917;-69
2022/03/10 10:42:43;;;;;;;;;;;;;;;;;;5027023;28;1223;-69
2022/03/10 10:45:27;;;;;;;;;;;;;;;;;;5026817;28;1271;-67
2022/03/10 10:47:59;;;;;;;;;;;;;;;;;;5028433;28;1233;-68
2022/03/10 10:50:24;;;;;;;;;;;;;;;;;;5027391;28;1401;-68
2022/03/10 10:52:49;;;;;;;;;;;;;;;;;;5027545;28;1370;-68
2022/03/10 10:55:14;;;;;;;;;;;;;;;;;;5023228;28;1271;-68
2022/03/10 10:57:39;;;;;;;;;;;;;;;;;;5026331;28;1260;-67
2022/03/10 11:00:14;;;;;;;;;;;;;;;;;;5043324;28;1902;-71
2022/03/10 11:02:42;;;;;;;;;;;;;;;;;;5041645;28;1423;-69
2022/03/10 11:05:12;;;;;;;;;;;;;;;;;;5042979;28;1354;-68
2022/03/10 11:07:38;;;;;;;;;;;;;;;;;;5027803;28;1341;-69
2022/03/10 11:10:04;;;;;;;;;;;;;;;;;;5043153;28;1330;-68
2022/03/10 11:12:29;;;;;;;;;;;;;;;;;;5034312;28;1369;-69
2022/03/10 11:14:55;;;;;;;;;;;;;;;;;;5032487;28;1319;-69
2022/03/10 11:18:06;;;;;;;;;;;;;;;;;;5119394;27;1295;-72
2022/03/10 11:20:31;;;;;;;;;;;;;;;;;;5117628;28;1412;-74
2022/03/10 11:23:15;;;;;;;;;;;;;;;;;;5116006;28;1310;-77
2022/03/10 11:25:40;;;;;;;;;;;;;;;;;;5119122;28;1364;-70
2022/03/10 11:28:10;;;;;;;;;;;;;;;;;;5099301;27;62004;-72
2022/03/10 11:30:35;;;;;;;;;;;;;;;;;;5093449;28;1361;-72
2022/03/10 11:33:04;;;;;;;;;;;;;;;;;;5096735;28;1402;-75
2022/03/10 11:35:36;;;;;;;;;;;;;;;;;;5096603;28;1337;-71
2022/03/10 11:38:01;;;;;;;;;;;;;;;;;;5094756;28;1909;-71
2022/03/10 11:40:43;;;;;;;;;;;;;;;;;;5097941;28;1305;-72
2022/03/10 11:43:09;;;;;;;;;;;;;;;;;;5094832;28;1453;-71
2022/03/10 11:45:34;;;;;;;;;;;;;;;;;;5094132;28;1378;-71
2022/03/10 11:48:18;;;;;;;;;;;;;;;;;;5100345;28;1381;-70
2022/03/10 11:50:43;;;;;;;;;;;;;;;;;;5096868;28;1324;-70
2022/03/10 11:53:08;;;;;;;;;;;;;;;;;;5097284;28;1957;-70
2022/03/10 11:55:37;;;;;;;;;;;;;;;;;;5096331;28;1401;-70
2022/03/10 11:58:06;;;;;;;;;;;;;;;;;;5096508;28;1902;-70
2022/03/10 12:00:40;;;;;;;;;;;;;;;;;;5089154;28;1582;-71
2022/03/10 12:03:06;;;;;;;;;;;;;;;;;;5096235;28;1348;-71
2022/03/10 12:05:51;;;;;;;;;;;;;;;;;;5091064;28;1373;-73
2022/03/10 12:08:19;;;;;;;;;;;;;;;;;;5095956;28;1139;-70
2022/03/10 12:10:47;;;;;;;;;;;;;;;;;;5095280;28;1289;-71
2022/03/10 12:13:23;;;;;;;;;;;;;;;;;;5078072;28;1286;-72
2022/03/10 12:15:49;;;;;;;;;;;;;;;;;;5093319;28;1901;-71
2022/03/10 12:18:15;;;;;;;;;;;;;;;;;;5094200;28;1241;-75
2022/03/10 12:20:41;;;;;;;;;;;;;;;;;;5096002;28;1281;-71
2022/03/10 12:23:06;;;;;;;;;;;;;;;;;;5098361;28;2072;-71
2022/03/10 12:25:46;;;;;;;;;;;;;;;;;;5098707;28;1892;-71
2022/03/10 12:28:33;;;;;;;;;;;;;;;;;;5093353;28;1331;-72
2022/03/10 12:31:05;;;;;;;;;;;;;;;;;;5082238;28;1794;-74
2022/03/10 12:33:30;;;;;;;;;;;;;;;;;;5087140;28;1951;-71
2022/03/10 12:35:56;;;;;;;;;;;;;;;;;;5086163;28;1999;-74
2022/03/10 12:38:40;;;;;;;;;;;;;;;;;;5083968;28;1284;-71
2022/03/10 12:41:05;;;;;;;;;;;;;;;;;;5080592;28;1238;-71
2022/03/10 12:43:30;;;;;;;;;;;;;;;;;;5078936;28;1584;-70
2022/03/10 12:45:55;;;;;;;;;;;;;;;;;;5073449;28;1405;-70
2022/03/10 12:48:21;;;;;;;;;;;;;;;;;;5073676;28;1603;-70
2022/03/10 12:50:46;;;;;;;;;;;;;;;;;;5071346;28;1447;-70
2022/03/10 12:53:12;;;;;;;;;;;;;;;;;;5076332;28;1230;-72
2022/03/10 12:55:38;;;;;;;;;;;;;;;;;;5071920;28;1346;-72
2022/03/10 12:58:03;;;;;;;;;;;;;;;;;;5076196;28;1951;-73
2022/03/10 13:00:28;;;;;;;;;;;;;;;;;;5073576;28;1317;-72
2022/03/10 13:02:59;;;;;;;;;;;;;;;;;;5075617;28;1290;-72
2022/03/10 13:05:26;;;;;;;;;;;;;;;;;;5071767;28;1410;-73
2022/03/10 13:07:52;;;;;;;;;;;;;;;;;;5075157;28;1410;-71
2022/03/10 13:10:17;;;;;;;;;;;;;;;;;;5074393;28;1352;-71
2022/03/10 13:12:43;;;;;;;;;;;;;;;;;;5080194;28;1427;-71
2022/03/10 13:15:09;;;;;;;;;;;;;;;;;;5075637;28;1523;-71
2022/03/10 13:17:36;;;;;;;;;;;;;;;;;;5076234;28;1910;-71
2022/03/10 13:20:07;;;;;;;;;;;;;;;;;;5081920;28;1351;-71
2022/03/10 13:22:33;;;;;;;;;;;;;;;;;;5076782;28;1453;-72
2022/03/10 13:24:58;;;;;;;;;;;;;;;;;;5074135;28;1369;-72
2022/03/10 13:27:23;;;;;;;;;;;;;;;;;;5080088;28;1353;-72
2022/03/10 13:29:49;;;;;;;;;;;;;;;;;;5079511;28;1360;-72
2022/03/10 13:32:18;;;;;;;;;;;;;;;;;;5080876;28;1420;-72
2022/03/10 13:34:43;;;;;;;;;;;;;;;;;;5078336;28;1426;-72
2022/03/10 13:37:09;;;;;;;;;;;;;;;;;;5077324;28;1955;-72
2022/03/10 13:39:36;;;;;;;;;;;;;;;;;;5078129;28;1356;-72
2022/03/10 13:42:01;;;;;;;;;;;;;;;;;;5079817;28;1289;-73
2022/03/10 13:44:27;;;;;;;;;;;;;;;;;;5076008;28;1375;-72
2022/03/10 13:47:01;;;;;;;;;;;;;;;;;;5072308;28;1437;-72
2022/03/10 13:49:27;;;;;;;;;;;;;;;;;;5075881;28;1387;-73
2022/03/10 13:51:52;;;;;;;;;;;;;;;;;;5076395;28;1411;-74
2022/03/10 13:54:18;;;;;;;;;;;;;;;;;;5081932;28;1357;-73
2022/03/10 13:56:44;;;;;;;;;;;;;;;;;;5078413;28;1961;-72
2022/03/10 13:59:09;;;;;;;;;;;;;;;;;;5080126;28;1410;-73
2022/03/10 14:01:38;;;;;;;;;;;;;;;;;;5075667;28;1376;-72
2022/03/10 14:04:10;;;;;;;;;;;;;;;;;;5078012;28;1410;-73
2022/03/10 14:06:48;;;;;;;;;;;;;;;;;;5079568;28;1364;-74
2022/03/10 14:09:20;;;;;;;;;;;;;;;;;;5078192;28;1423;-74
2022/03/10 14:11:46;;;;;;;;;;;;;;;;;;5074075;28;1603;-73
2022/03/10 14:14:11;;;;;;;;;;;;;;;;;;5091543;28;1456;-73
2022/03/10 14:16:36;;;;;;;;;;;;;;;;;;5076599;28;2005;-74
2022/03/10 14:19:04;;;;;;;;;;;;;;;;;;5072179;28;1596;-73
2022/03/10 14:21:30;;;;;;;;;;;;;;;;;;5079081;28;1383;-74
2022/03/10 14:23:59;;;;;;;;;;;;;;;;;;5077285;28;1409;-74
2022/03/10 14:26:24;;;;;;;;;;;;;;;;;;5078784;28;1953;-74
2022/03/10 14:28:50;;;;;;;;;;;;;;;;;;5077457;28;1363;-74
2022/03/10 14:31:16;;;;;;;;;;;;;;;;;;5075690;28;1423;-73
2022/03/10 14:33:42;;;;;;;;;;;;;;;;;;5079246;28;1371;-73
2022/03/10 14:36:09;;;;;;;;;;;;;;;;;;5078729;28;1906;-73
2022/03/10 14:38:35;;;;;;;;;;;;;;;;;;5078582;28;1387;-72
2022/03/10 14:41:00;;;;;;;;;;;;;;;;;;5079318;28;1353;-72
2022/03/10 14:43:25;;;;;;;;;;;;;;;;;;5079923;28;1426;-72
2022/03/10 14:45:51;;;;;;;;;;;;;;;;;;5076149;28;1411;-73
2022/03/10 14:48:16;;;;;;;;;;;;;;;;;;5072944;28;1439;-73
2022/03/10 14:50:41;;;;;;;;;;;;;;;;;;5075248;28;1390;-73
2022/03/10 14:53:08;;;;;;;;;;;;;;;;;;5076888;28;1385;-73
2022/03/10 14:55:33;;;;;;;;;;;;;;;;;;5077250;28;1349;-72
2022/03/10 14:57:58;;;;;;;;;;;;;;;;;;5076196;28;1890;-73
2022/03/10 15:00:23;;;;;;;;;;;;;;;;;;5069133;28;1384;-73
2022/03/10 15:02:49;;;;;;;;;;;;;;;;;;5076429;28;1376;-72
2022/03/10 15:05:14;;;;;;;;;;;;;;;;;;5074948;28;1380;-70
2022/03/10 15:07:40;;;;;;;;;;;;;;;;;;5074951;28;1353;-73
2022/03/10 15:10:10;;;;;;;;;;;;;;;;;;5070938;28;10271;-77
2022/03/10 15:12:36;;;;;;;;;;;;;;;;;;5071784;28;1353;-72
2022/03/10 15:15:01;;;;;;;;;;;;;;;;;;5072011;28;1451;-72
2022/03/10 15:17:27;;;;;;;;;;;;;;;;;;5073303;28;1906;-75
2022/03/10 15:19:53;;;;;;;;;;;;;;;;;;5080564;28;1569;-75
2022/03/10 15:22:18;;;;;;;;;;;;;;;;;;5074373;28;1858;-76
2022/03/10 15:24:43;;;;;;;;;;;;;;;;;;5076459;28;1421;-75
2022/03/10 15:27:08;;;;;;;;;;;;;;;;;;5075707;28;1606;-75
2022/03/10 15:29:34;;;;;;;;;;;;;;;;;;5076811;28;1341;-76
2022/03/10 15:31:59;;;;;;;;;;;;;;;;;;5072405;28;9644;-75
2022/03/10 15:35:17;;;;;;;;;;;;;;;;;;4991662;28;9820;-72
2022/03/10 15:37:44;;;;;;;;;;;;;;;;;;4959897;28;5688;-72
2022/03/10 15:40:09;;;;;;;;;;;;;;;;;;4959875;28;5547;-72
2022/03/10 15:42:34;;;;;;;;;;;;;;;;;;4960127;28;5529;-74
2022/03/10 15:44:59;;;;;;;;;;;;;;;;;;4958001;28;6157;-72
2022/03/10 15:47:25;;;;;;;;;;;;;;;;;;4959787;28;6204;-73
2022/03/10 15:49:50;;;;;;;;;;;;;;;;;;4958405;28;5860;-74
2022/03/10 15:52:15;;;;;;;;;;;;;;;;;;4957652;28;6092;-74
2022/03/10 15:54:40;;;;;;;;;;;;;;;;;;4957498;28;5829;-74
2022/03/10 15:57:06;;;;;;;;;;;;;;;;;;4956840;28;5599;-73
2022/03/10 15:59:31;;;;;;;;;;;;;;;;;;4958703;28;5722;-74
2022/03/10 16:01:57;;;;;;;;;;;;;;;;;;4958365;28;5709;-74
2022/03/10 16:04:22;;;;;;;;;;;;;;;;;;4958034;28;5521;-74
2022/03/10 16:06:48;;;;;;;;;;;;;;;;;;4969226;28;5755;-74
2022/03/10 16:09:13;;;;;;;;;;;;;;;;;;4959104;28;5653;-73
2022/03/10 16:11:38;;;;;;;;;;;;;;;;;;4969714;28;5598;-74
2022/03/10 16:14:03;;;;;;;;;;;;;;;;;;4974054;28;5671;-74
2022/03/10 16:16:29;;;;;;;;;;;;;;;;;;4973534;28;5460;-74
2022/03/10 16:18:54;;;;;;;;;;;;;;;;;;4975552;28;5542;-74
2022/03/10 16:21:19;;;;;;;;;;;;;;;;;;4973020;28;6009;-74
2022/03/10 16:23:44;;;;;;;;;;;;;;;;;;4973524;28;5592;-74
2022/03/10 16:26:10;;;;;;;;;;;;;;;;;;4972231;28;5592;-74
2022/03/10 16:28:36;;;;;;;;;;;;;;;;;;4972724;28;5835;-74
2022/03/10 16:31:02;;;;;;;;;;;;;;;;;;4973490;28;5525;-74
2022/03/10 16:33:27;;;;;;;;;;;;;;;;;;4979111;28;6161;-74
2022/03/10 16:35:52;;;;;;;;;;;;;;;;;;4993133;28;6318;-74
2022/03/10 16:38:18;;;;;;;;;;;;;;;;;;4992643;28;6004;-72
2022/03/10 16:40:43;;;;;;;;;;;;;;;;;;4993770;28;5389;-73
2022/03/10 16:43:08;;;;;;;;;;;;;;;;;;4992730;28;5682;-73
2022/03/10 16:45:33;;;;;;;;;;;;;;;;;;4984784;28;5745;-73
2022/03/10 16:47:59;;;;;;;;;;;;;;;;;;4980396;28;5617;-74
2022/03/10 16:50:24;;;;;;;;;;;;;;;;;;4978669;28;6023;-73
2022/03/10 16:52:49;;;;;;;;;;;;;;;;;;4980536;28;5385;-74
2022/03/10 16:55:15;;;;;;;;;;;;;;;;;;4978383;28;5508;-74
2022/03/10 16:57:41;;;;;;;;;;;;;;;;;;4979154;28;5665;-75
2022/03/10 17:00:07;;;;;;;;;;;;;;;;;;4979818;28;5580;-75
2022/03/10 17:02:33;;;;;;;;;;;;;;;;;;4980331;28;6089;-76
2022/03/10 17:04:58;;;;;;;;;;;;;;;;;;4979982;28;5988;-77
2022/03/10 17:07:23;;;;;;;;;;;;;;;;;;4980332;28;6158;-73
2022/03/10 17:09:48;;;;;;;;;;;;;;;;;;4978001;28;5833;-75
2022/03/10 17:12:13;;;;;;;;;;;;;;;;;;4979626;28;5764;-76
2022/03/10 17:14:39;;;;;;;;;;;;;;;;;;4979081;28;5537;-76
2022/03/10 17:17:04;;;;;;;;;;;;;;;;;;4979579;28;5892;-78
2022/03/10 17:19:32;;;;;;;;;;;;;;;;;;4979667;28;5605;-78
2022/03/10 17:21:58;;;;;;;;;;;;;;;;;;4980818;28;5983;-77
2022/03/10 17:24:24;;;;;;;;;;;;;;;;;;4980310;28;5574;-77
2022/03/10 17:26:50;;;;;;;;;;;;;;;;;;4978272;28;5579;-78
2022/03/10 17:29:15;;;;;;;;;;;;;;;;;;4980640;28;5835;-77
2022/03/10 17:31:43;;;;;;;;;;;;;;;;;;4979141;28;5647;-75
2022/03/10 17:34:08;;;;;;;;;;;;;;;;;;4980184;28;5571;-76
2022/03/10 17:36:34;;;;;;;;;;;;;;;;;;4978779;28;5589;-76
2022/03/10 17:39:00;;;;;;;;;;;;;;;;;;4980748;28;5520;-76
2022/03/10 17:41:25;;;;;;;;;;;;;;;;;;4979539;28;5932;-75
2022/03/10 17:43:50;;;;;;;;;;;;;;;;;;4979295;28;5582;-74
2022/03/10 17:46:16;;;;;;;;;;;;;;;;;;4978403;28;5701;-74
2022/03/10 17:48:43;;;;;;;;;;;;;;;;;;4979825;28;5647;-74
2022/03/10 17:51:08;;;;;;;;;;;;;;;;;;4980318;28;5417;-75
2022/03/10 17:53:34;;;;;;;;;;;;;;;;;;4978432;28;5715;-75
2022/03/10 17:55:59;;;;;;;;;;;;;;;;;;4979346;28;5830;-77
2022/03/10 17:58:24;;;;;;;;;;;;;;;;;;4977477;28;5741;-75
2022/03/10 18:00:49;;;;;;;;;;;;;;;;;;4979660;28;5591;-74
2022/03/10 18:03:15;;;;;;;;;;;;;;;;;;4980958;28;5654;-74
2022/03/10 18:05:40;;;;;;;;;;;;;;;;;;4978320;28;5555;-75
2022/03/10 18:08:05;;;;;;;;;;;;;;;;;;4981048;28;5750;-76
2022/03/10 18:10:30;;;;;;;;;;;;;;;;;;4979852;28;5704;-76
2022/03/10 18:12:56;;;;;;;;;;;;;;;;;;4979901;28;5847;-78
2022/03/10 18:15:23;;;;;;;;;;;;;;;;;;4978439;28;5667;-73
2022/03/10 18:17:48;;;;;;;;;;;;;;;;;;4980307;28;5506;-73
2022/03/10 18:20:15;;;;;;;;;;;;;;;;;;4980660;28;5599;-74
2022/03/10 18:22:41;;;;;;;;;;;;;;;;;;4978482;28;6838;-73
2022/03/10 18:25:07;;;;;;;;;;;;;;;;;;4979378;28;5815;-74
2022/03/10 18:27:32;;;;;;;;;;;;;;;;;;4978706;28;5445;-73
2022/03/10 18:29:58;;;;;;;;;;;;;;;;;;4979625;28;5728;-74
2022/03/10 18:32:23;;;;;;;;;;;;;;;;;;4979014;28;5624;-75
2022/03/10 18:34:48;;;;;;;;;;;;;;;;;;4979304;28;5581;-75
2022/03/10 18:37:16;;;;;;;;;;;;;;;;;;4979081;28;6086;-76
2022/03/10 18:39:41;;;;;;;;;;;;;;;;;;4979239;28;5797;-75
2022/03/10 18:42:06;;;;;;;;;;;;;;;;;;4979978;28;5717;-77
2022/03/10 18:44:31;;;;;;;;;;;;;;;;;;4978893;28;5616;-76
2022/03/10 18:46:57;;;;;;;;;;;;;;;;;;4979037;28;5553;-77
2022/03/10 18:49:22;;;;;;;;;;;;;;;;;;4978841;28;5733;-76
2022/03/10 18:51:48;;;;;;;;;;;;;;;;;;4980194;28;5659;-77
2022/03/10 18:54:13;;;;;;;;;;;;;;;;;;4979887;28;5846;-77
2022/03/10 18:56:38;;;;;;;;;;;;;;;;;;4977900;28;5714;-75
2022/03/10 18:59:03;;;;;;;;;;;;;;;;;;4979646;28;5542;-76
2022/03/10 19:01:28;;;;;;;;;;;;;;;;;;4979050;28;5678;-76
2022/03/10 19:03:54;;;;;;;;;;;;;;;;;;4979596;28;5603;-76
2022/03/10 19:06:19;;;;;;;;;;;;;;;;;;4978020;28;5635;-72
2022/03/10 19:08:45;;;;;;;;;;;;;;;;;;4979675;28;5579;-76
2022/03/10 19:11:10;;;;;;;;;;;;;;;;;;4979384;28;5700;-76
2022/03/10 19:13:35;;;;;;;;;;;;;;;;;;4979002;28;5588;-77
2022/03/10 19:16:01;;;;;;;;;;;;;;;;;;4978553;28;5886;-76
2022/03/10 19:18:27;;;;;;;;;;;;;;;;;;4979997;28;5857;-75
2022/03/10 19:20:52;;;;;;;;;;;;;;;;;;4978861;28;5420;-73
2022/03/10 19:23:17;;;;;;;;;;;;;;;;;;4978874;28;5606;-74
2022/03/10 19:25:42;;;;;;;;;;;;;;;;;;4978512;28;5401;-75
2022/03/10 19:28:07;;;;;;;;;;;;;;;;;;4979386;28;5457;-75
2022/03/10 19:30:33;;;;;;;;;;;;;;;;;;4978741;28;5460;-75
2022/03/10 19:32:58;;;;;;;;;;;;;;;;;;4978855;28;5991;-75
2022/03/10 19:35:23;;;;;;;;;;;;;;;;;;4978824;28;6329;-74
2022/03/10 19:37:49;;;;;;;;;;;;;;;;;;4979790;28;5635;-75
2022/03/10 19:40:14;;;;;;;;;;;;;;;;;;4978025;28;5518;-75
2022/03/10 19:42:39;;;;;;;;;;;;;;;;;;4978744;28;5617;-75
2022/03/10 19:45:05;;;;;;;;;;;;;;;;;;4979006;28;5612;-75
2022/03/10 19:47:32;;;;;;;;;;;;;;;;;;4978350;28;5462;-76
2022/03/10 19:49:57;;;;;;;;;;;;;;;;;;4980917;28;5397;-75
2022/03/10 19:52:24;;;;;;;;;;;;;;;;;;4979326;28;5461;-75
2022/03/10 19:54:49;;;;;;;;;;;;;;;;;;4980309;28;6133;-74
2022/03/10 19:57:14;;;;;;;;;;;;;;;;;;4977854;28;5627;-74
2022/03/10 19:59:39;;;;;;;;;;;;;;;;;;4977977;28;5389;-73
2022/03/10 20:02:05;;;;;;;;;;;;;;;;;;4978578;28;5436;-76
2022/03/10 20:04:31;;;;;;;;;;;;;;;;;;4979557;28;5438;-76
2022/03/10 20:06:56;;;;;;;;;;;;;;;;;;4978132;28;5762;-76
2022/03/10 20:09:21;;;;;;;;;;;;;;;;;;4977872;28;5446;-75
2022/03/10 20:11:47;;;;;;;;;;;;;;;;;;4978941;28;5606;-75
2022/03/10 20:14:12;;;;;;;;;;;;;;;;;;4978359;28;5440;-75
2022/03/10 20:16:37;;;;;;;;;;;;;;;;;;4978044;28;5531;-76
2022/03/10 20:19:03;;;;;;;;;;;;;;;;;;4978034;28;5370;-76
2022/03/10 20:21:28;;;;;;;;;;;;;;;;;;4981395;28;5415;-75
2022/03/10 20:23:53;;;;;;;;;;;;;;;;;;4982881;28;5532;-76
2022/03/10 20:26:19;;;;;;;;;;;;;;;;;;4980339;28;5645;-76
2022/03/10 20:28:44;;;;;;;;;;;;;;;;;;4981873;28;5527;-76
2022/03/10 20:31:10;;;;;;;;;;;;;;;;;;4982286;28;5436;-76
2022/03/10 20:33:36;;;;;;;;;;;;;;;;;;4980850;28;5777;-76
2022/03/10 20:36:01;;;;;;;;;;;;;;;;;;4964483;28;5389;-75
2022/03/10 20:38:26;;;;;;;;;;;;;;;;;;4981199;28;5653;-76
2022/03/10 20:40:55;;;;;;;;;;;;;;;;;;4981161;28;5453;-74
2022/03/10 20:43:20;;;;;;;;;;;;;;;;;;4981911;28;6042;-75
2022/03/10 20:45:45;;;;;;;;;;;;;;;;;;4981984;28;5535;-74
2022/03/10 20:48:13;;;;;;;;;;;;;;;;;;4981023;28;5470;-74
2022/03/10 20:50:39;;;;;;;;;;;;;;;;;;4979822;28;5608;-74
2022/03/10 20:53:05;;;;;;;;;;;;;;;;;;4982473;28;5557;-74
2022/03/10 20:55:30;;;;;;;;;;;;;;;;;;4980628;28;5608;-74
2022/03/10 20:57:55;;;;;;;;;;;;;;;;;;4982068;28;5421;-73
2022/03/10 21:00:20;;;;;;;;;;;;;;;;;;4982893;28;5609;-75
2022/03/10 21:02:45;;;;;;;;;;;;;;;;;;4981539;28;5407;-75
2022/03/10 21:05:11;;;;;;;;;;;;;;;;;;4980493;28;5602;-75
2022/03/10 21:07:36;;;;;;;;;;;;;;;;;;4980432;28;5463;-75
2022/03/10 21:10:01;;;;;;;;;;;;;;;;;;4981366;28;5529;-74
2022/03/10 21:12:26;;;;;;;;;;;;;;;;;;4982204;28;5487;-73
2022/03/10 21:14:51;;;;;;;;;;;;;;;;;;4980528;28;5393;-75
2022/03/10 21:17:17;;;;;;;;;;;;;;;;;;4980253;28;5544;-75
2022/03/10 21:19:42;;;;;;;;;;;;;;;;;;4981463;28;5569;-74
2022/03/10 21:22:07;;;;;;;;;;;;;;;;;;4982428;28;5621;-75
2022/03/10 21:24:33;;;;;;;;;;;;;;;;;;4980402;28;5580;-75
2022/03/10 21:26:58;;;;;;;;;;;;;;;;;;4978938;28;5567;-74
2022/03/10 21:29:23;;;;;;;;;;;;;;;;;;4979802;28;5578;-74
2022/03/10 21:31:48;;;;;;;;;;;;;;;;;;4980294;28;5560;-74
2022/03/10 21:34:14;;;;;;;;;;;;;;;;;;4980431;28;5570;-74
2022/03/10 21:36:39;;;;;;;;;;;;;;;;;;4979606;28;5528;-75
2022/03/10 21:39:06;;;;;;;;;;;;;;;;;;4980620;28;5601;-75
2022/03/10 21:41:32;;;;;;;;;;;;;;;;;;4979878;28;5436;-75
2022/03/10 21:43:57;;;;;;;;;;;;;;;;;;4983219;28;5500;-76
2022/03/10 21:46:22;;;;;;;;;;;;;;;;;;4979415;28;5660;-74
2022/03/10 21:48:48;;;;;;;;;;;;;;;;;;4980574;28;5368;-74
2022/03/10 21:51:13;;;;;;;;;;;;;;;;;;4980614;28;5875;-74
2022/03/10 21:53:38;;;;;;;;;;;;;;;;;;4979812;28;5589;-74
2022/03/10 21:56:03;;;;;;;;;;;;;;;;;;4979892;28;5567;-73
2022/03/10 21:58:29;;;;;;;;;;;;;;;;;;4980006;28;5587;-74
2022/03/10 22:00:54;;;;;;;;;;;;;;;;;;4980253;28;5427;-74
2022/03/10 22:03:20;;;;;;;;;;;;;;;;;;4980217;28;5575;-74
2022/03/10 22:05:46;;;;;;;;;;;;;;;;;;4979631;28;6321;-75
2022/03/10 22:08:11;;;;;;;;;;;;;;;;;;4980352;28;5470;-75
2022/03/10 22:10:37;;;;;;;;;;;;;;;;;;4979391;28;5728;-75
2022/03/10 22:13:03;;;;;;;;;;;;;;;;;;4981375;28;5393;-75
2022/03/10 22:15:28;;;;;;;;;;;;;;;;;;4978351;28;5561;-74
2022/03/10 22:17:53;;;;;;;;;;;;;;;;;;4981297;28;5514;-74
2022/03/10 22:20:18;;;;;;;;;;;;;;;;;;4979645;28;5458;-74
2022/03/10 22:22:44;;;;;;;;;;;;;;;;;;4979997;28;5509;-74
2022/03/10 22:25:09;;;;;;;;;;;;;;;;;;4979351;28;5458;-73
2022/03/10 22:27:34;;;;;;;;;;;;;;;;;;4979331;28;5589;-74
2022/03/10 22:29:59;;;;;;;;;;;;;;;;;;4978967;28;5531;-74
2022/03/10 22:32:25;;;;;;;;;;;;;;;;;;4978672;28;5928;-74
2022/03/10 22:34:50;;;;;;;;;;;;;;;;;;4978114;28;5431;-74
2022/03/10 22:37:15;;;;;;;;;;;;;;;;;;4978845;28;5610;-74
2022/03/10 22:39:41;;;;;;;;;;;;;;;;;;4979576;28;5507;-75
2022/03/10 22:42:06;;;;;;;;;;;;;;;;;;4980236;28;5589;-74
2022/03/10 22:44:32;;;;;;;;;;;;;;;;;;4979601;28;5593;-74
2022/03/10 22:46:57;;;;;;;;;;;;;;;;;;4979445;28;6013;-76
2022/03/10 22:49:22;;;;;;;;;;;;;;;;;;4979366;28;5463;-75
2022/03/10 22:54:31;;;;;;;;;;;;;;;;;;4979300;28;5568;-75
2022/03/10 22:56:56;;;;;;;;;;;;;;;;;;4980629;28;5462;-76
2022/03/10 22:59:22;;;;;;;;;;;;;;;;;;4979765;28;5659;-75
2022/03/10 23:01:47;;;;;;;;;;;;;;;;;;4979937;28;5504;-76
2022/03/10 23:09:40;;;;;;;;;;;;;;;;;;4979932;28;5494;-75
2022/03/10 23:12:06;;;;;;;;;;;;;;;;;;4980119;28;5479;-76
2022/03/10 23:14:32;;;;;;;;;;;;;;;;;;4979031;28;6068;-76
2022/03/10 23:16:57;;;;;;;;;;;;;;;;;;4979139;28;5522;-76
2022/03/10 23:19:22;;;;;;;;;;;;;;;;;;4979033;28;5632;-76
2022/03/10 23:21:48;;;;;;;;;;;;;;;;;;4980132;28;5576;-76
2022/03/10 23:24:13;;;;;;;;;;;;;;;;;;4979747;28;5592;-75
2022/03/10 23:26:38;;;;;;;;;;;;;;;;;;4977848;28;5538;-75
2022/03/10 23:29:03;;;;;;;;;;;;;;;;;;4979312;28;5377;-75
2022/03/10 23:31:28;;;;;;;;;;;;;;;;;;4978536;28;5600;-76
2022/03/10 23:33:54;;;;;;;;;;;;;;;;;;4981249;28;5541;-74
2022/03/10 23:36:19;;;;;;;;;;;;;;;;;;4979613;28;5464;-75
2022/03/10 23:38:44;;;;;;;;;;;;;;;;;;4979576;28;5537;-74
2022/03/10 23:41:09;;;;;;;;;;;;;;;;;;4979404;28;5593;-74
2022/03/10 23:43:35;;;;;;;;;;;;;;;;;;4979626;28;5561;-74
2022/03/10 23:46:00;;;;;;;;;;;;;;;;;;4978717;28;5395;-74
2022/03/10 23:48:25;;;;;;;;;;;;;;;;;;4980243;28;5441;-74
2022/03/10 23:50:50;;;;;;;;;;;;;;;;;;4978962;28;5555;-73
2022/03/10 23:53:15;;;;;;;;;;;;;;;;;;4978750;28;5620;-74
2022/03/10 23:55:41;;;;;;;;;;;;;;;;;;4979511;28;5384;-74
2022/03/10 23:58:06;;;;;;;;;;;;;;;;;;4982576;28;5521;-74
